Main page
METAR-TAF:

METAR-TAF

Airports :

Nakhchivan, Azerbaijan

Nakhchivan International Airport

latitude: 39-11-19N, longitude: 045-27-30E, elevation: 873 m

Current weather observation

The report was made 30 minutes ago, at 20:00 UTC
Wind 4 kt from the North
Temperature 11°C
Humidity 76%
Pressure 1016 hPa
Visibility 10 km or more

METAR: UBBN 302000Z 01004KT 9999 NSC 11/07 Q1016 R14R/CLRD// NOSIG RMK MT OP QFE687

Time: 00:30 (20:30 UTC)

Forecast

The report was made 3 hours and 29 minutes ago, at 17:01 UTC
Forecast valid from 30 at 18 UTC to 01 at 18 UTC
Wind 4 kt from variable directions
Visibility 10 km or more
Few clouds at a height of 5000 ft
Scattered clouds at a height of 10000 ft
Temporary
from 30 at 18 UTC to 30 at 24 UTC
Wind 10 kt from the Northeast
Temporary
from 01 at 03 UTC to 01 at 13 UTC
Wind 12 kt from the Southeast

TAF: UBBN 301701Z 3018/0118 VRB04KT 9999 FEW050 SCT100 TX28/0112Z TN08/0102Z TEMPO 3018/3024 05010KT TEMPO 0103/0113 13012KT

Weather observations and forecasts of more than 4000 airports (METAR and TAF reports).

The available stations are represented by yellow and red dots on the map.

Hover mouse over dot to see the name of the station.

Then click to see weather observations and forecasts.

To change the map : click on the green buttons with a black cross to zoom in, on the green button with a dash to zoom out, or on the green arrows for adjacent maps.


METAR-TAF: